Time;durP1;ratioP1;P1;durP2;ratioP2;P2;SDS_P1;SDS_P2;PMS_P1;PMS_P2;Temp;Humidity;BMP_temperature;BMP_pressure;BME280_temperature;BME280_humidity;BME280_pressure;Samples;Min_cycle;Max_cycle;Signal;HPM_P1;HPM_P2
2022/02/15 00:00:22;;;;;;;13.27;3.05;;;;;;;5.88;85.26;100450.84;5049711;28;20078;-75
2022/02/15 00:02:48;;;;;;;15.90;3.47;;;;;;;5.82;85.53;100448.78;5067788;28;20032;-76
2022/02/15 00:05:13;;;;;;;14.98;3.30;;;;;;;5.76;85.52;100446.75;5067396;28;20031;-76
2022/02/15 00:07:39;;;;;;;14.73;2.75;;;;;;;5.66;86.18;100444.16;5048777;28;20037;-76
2022/02/15 00:10:08;;;;;;;7.70;2.30;;;;;;;5.71;85.80;100442.00;5032301;28;20115;-75
2022/02/15 00:12:33;;;;;;;10.60;3.00;;;;;;;5.68;85.79;100444.03;5047235;28;20024;-76
2022/02/15 00:14:59;;;;;;;8.95;2.55;;;;;;;5.54;86.10;100446.03;5067476;28;20036;-75
2022/02/15 00:17:24;;;;;;;10.43;2.80;;;;;;;5.58;86.14;100444.00;5050041;28;20684;-76
2022/02/15 00:19:50;;;;;;;18.38;3.00;;;;;;;5.47;86.38;100450.06;5049482;28;20036;-76
2022/02/15 00:22:15;;;;;;;22.98;3.50;;;;;;;5.43;86.71;100454.66;5068001;28;20491;-76
2022/02/15 00:24:41;;;;;;;14.95;3.35;;;;;;;5.33;86.76;100453.00;5048742;28;20411;-76
2022/02/15 00:27:06;;;;;;;16.80;3.05;;;;;;;5.30;87.10;100450.69;5066994;28;20039;-76
2022/02/15 00:29:32;;;;;;;12.77;3.22;;;;;;;5.32;87.10;100465.03;5050312;28;20040;-76
2022/02/15 00:31:57;;;;;;;8.60;2.88;;;;;;;5.35;87.48;100458.81;5051314;28;20035;-76
2022/02/15 00:34:23;;;;;;;14.63;3.10;;;;;;;5.26;87.48;100457.84;5071106;28;20043;-76
2022/02/15 00:36:49;;;;;;;7.13;2.42;;;;;;;5.22;87.80;100454.72;5049868;28;20048;-76
2022/02/15 00:39:15;;;;;;;13.27;2.83;;;;;;;5.28;87.43;100460.31;5048555;28;20367;-76
2022/02/15 00:41:40;;;;;;;8.88;3.10;;;;;;;5.21;87.66;100462.56;5067233;28;20399;-76
2022/02/15 00:44:06;;;;;;;13.23;2.97;;;;;;;5.26;88.28;100465.56;5050409;28;20105;-75
2022/02/15 00:46:31;;;;;;;9.15;2.97;;;;;;;5.37;87.80;100462.91;5050171;28;20056;-76
2022/02/15 00:48:57;;;;;;;11.30;2.97;;;;;;;5.35;87.89;100471.69;5049400;28;20059;-76
2022/02/15 00:51:23;;;;;;;8.77;2.55;;;;;;;5.32;87.63;100472.75;5054957;28;20190;-76
2022/02/15 00:53:48;;;;;;;7.97;2.35;;;;;;;5.30;87.92;100468.69;5031336;28;20032;-76
2022/02/15 00:56:13;;;;;;;14.88;2.67;;;;;;;5.36;88.04;100470.75;5051861;28;20043;-76
2022/02/15 00:58:40;;;;;;;10.43;2.50;;;;;;;5.35;88.03;100469.09;5066606;28;20115;-76
2022/02/15 01:01:05;;;;;;;13.15;2.78;;;;;;;5.50;87.55;100478.13;5064034;28;20523;-76
2022/02/15 01:03:31;;;;;;;10.68;2.60;;;;;;;5.45;87.84;100481.06;5049997;28;20031;-75
2022/02/15 01:05:59;;;;;;;7.22;2.33;;;;;;;5.46;87.52;100481.88;5035783;28;20040;-76
2022/02/15 01:08:25;;;;;;;10.57;2.85;;;;;;;5.55;87.50;100485.41;5047437;28;20029;-76
2022/02/15 01:10:51;;;;;;;13.98;2.80;;;;;;;5.45;87.49;100485.41;5068938;28;20534;-76
2022/02/15 01:13:17;;;;;;;13.77;3.50;;;;;;;5.45;87.88;100490.53;5067605;28;20305;-76
2022/02/15 01:15:43;;;;;;;6.85;2.38;;;;;;;5.47;87.94;100488.66;5041235;28;20054;-76
2022/02/15 01:18:09;;;;;;;17.50;3.35;;;;;;;5.52;87.82;100488.25;5033664;28;20024;-76
2022/02/15 01:20:35;;;;;;;9.20;2.33;;;;;;;5.50;87.56;100488.41;5064238;28;20445;-76
2022/02/15 01:23:00;;;;;;;10.88;2.95;;;;;;;5.46;87.61;100489.56;5032588;28;20048;-76
2022/02/15 01:25:26;;;;;;;21.90;3.88;;;;;;;5.70;87.13;100488.44;5066101;28;20479;-76
2022/02/15 01:27:53;;;;;;;12.98;3.58;;;;;;;5.55;87.31;100495.72;5049453;28;20478;-76
2022/02/15 01:30:18;;;;;;;13.38;3.13;;;;;;;5.52;87.14;100499.38;5049717;28;20115;-75
2022/02/15 01:32:44;;;;;;;8.32;2.80;;;;;;;5.44;87.62;100494.88;5067390;28;20033;-76
2022/02/15 01:35:10;;;;;;;11.63;3.20;;;;;;;5.48;87.57;100500.53;5058779;28;20033;-76
2022/02/15 01:37:35;;;;;;;12.30;2.85;;;;;;;5.58;87.58;100503.19;5045000;28;20522;-76
2022/02/15 01:40:01;;;;;;;12.25;3.20;;;;;;;5.57;87.54;100507.47;5040105;28;20049;-75
2022/02/15 01:42:28;;;;;;;12.85;3.47;;;;;;;5.57;87.42;100511.81;5054692;28;20032;-76
2022/02/15 01:44:53;;;;;;;21.48;3.00;;;;;;;5.64;86.98;100512.94;5065724;28;20078;-76
2022/02/15 01:47:23;;;;;;;10.20;3.42;;;;;;;5.51;87.75;100513.16;5049626;28;20032;-76
2022/02/15 01:49:50;;;;;;;11.60;3.53;;;;;;;5.61;87.22;100510.63;5054463;28;20032;-75
2022/02/15 01:52:16;;;;;;;12.93;3.17;;;;;;;5.71;87.15;100519.19;5034499;28;20028;-76
2022/02/15 01:54:42;;;;;;;10.05;2.95;;;;;;;5.69;87.08;100510.78;5049934;28;20025;-76
2022/02/15 01:57:07;;;;;;;8.65;3.05;;;;;;;5.65;86.68;100507.66;5067662;28;20430;-76
2022/02/15 01:59:33;;;;;;;9.50;3.10;;;;;;;5.64;86.74;100505.22;5052264;28;20033;-76
2022/02/15 02:01:59;;;;;;;18.55;3.22;;;;;;;5.63;87.18;100516.44;5065725;28;20044;-76
2022/02/15 02:07:09;;;;;;;13.23;4.45;;;;;;;5.62;86.96;100520.78;5049733;28;20119;-76
2022/02/15 02:09:38;;;;;;;11.95;3.83;;;;;;;5.54;86.89;100520.63;5031265;28;20457;-76
2022/02/15 02:12:05;;;;;;;18.05;4.45;;;;;;;5.53;87.22;100524.13;5067122;28;20009;-76
2022/02/15 02:15:00;;;;;;;8.77;4.25;;;;;;;5.44;87.75;100530.88;5046151;28;20098;-75
2022/02/15 02:17:46;;;;;;;14.20;4.80;;;;;;;5.52;87.55;100526.81;5053087;28;20059;-75
2022/02/15 02:20:13;;;;;;;12.10;4.43;;;;;;;5.58;87.22;100536.63;5050150;28;20091;-76
2022/02/15 02:22:40;;;;;;;16.75;4.65;;;;;;;5.58;87.06;100534.84;5031574;28;20395;-76
2022/02/15 02:25:10;;;;;;;14.73;4.82;;;;;;;5.54;87.77;100540.38;5049563;28;20044;-76
2022/02/15 02:27:40;;;;;;;22.48;5.65;;;;;;;5.64;87.11;100541.22;5030325;28;20059;-76
2022/02/15 02:30:07;;;;;;;14.77;5.00;;;;;;;5.56;87.36;100535.94;5037476;28;20068;-76
2022/02/15 02:32:39;;;;;;;10.55;4.75;;;;;;;5.62;87.47;100541.34;5048725;28;20029;-76
2022/02/15 02:35:06;;;;;;;15.40;5.32;;;;;;;5.63;87.39;100537.84;5046979;28;20056;-76
2022/02/15 02:37:33;;;;;;;12.23;5.00;;;;;;;5.66;87.99;100542.72;5047828;28;20021;-75
2022/02/15 02:40:00;;;;;;;12.07;4.65;;;;;;;5.61;87.74;100542.31;5050440;28;20025;-76
2022/02/15 02:42:27;;;;;;;15.38;6.22;;;;;;;5.62;87.78;100553.41;5048607;28;20375;-76
2022/02/15 02:45:17;;;;;;;15.23;6.00;;;;;;;5.56;87.74;100559.09;5047919;28;20036;-76
2022/02/15 02:47:52;;;;;;;14.18;5.97;;;;;;;5.45;87.97;100571.06;5048241;28;20147;-76
2022/02/15 02:50:20;;;;;;;19.75;5.55;;;;;;;5.53;87.65;100565.28;5069529;28;20028;-76
2022/02/15 02:52:48;;;;;;;13.43;5.78;;;;;;;5.46;88.42;100566.72;5068328;28;20055;-76
2022/02/15 02:55:17;;;;;;;14.40;6.38;;;;;;;5.54;87.96;100564.34;5051877;28;20031;-76
2022/02/15 02:57:43;;;;;;;13.68;5.70;;;;;;;5.73;87.23;100565.38;5057041;28;20032;-76
2022/02/15 03:00:13;;;;;;;14.65;5.38;;;;;;;5.59;87.63;100572.47;5053366;28;20039;-76
2022/02/15 03:03:07;;;;;;;13.48;5.95;;;;;;;5.57;88.19;100574.38;5064614;28;20402;-76
2022/02/15 03:05:34;;;;;;;14.48;5.88;;;;;;;5.47;88.46;100576.09;5047318;28;20063;-76
2022/02/15 03:08:00;;;;;;;17.45;5.90;;;;;;;5.51;88.36;100577.47;5050102;28;20398;-76
2022/02/15 03:10:26;;;;;;;13.15;6.32;;;;;;;5.49;88.14;100586.25;5052028;28;20033;-76
2022/02/15 03:12:52;;;;;;;15.43;6.47;;;;;;;5.46;88.93;100587.31;5052013;28;20073;-76
2022/02/15 03:15:17;;;;;;;21.45;7.38;;;;;;;5.57;88.52;100589.00;5048736;28;20483;-76
2022/02/15 03:17:43;;;;;;;18.00;7.20;;;;;;;5.54;88.54;100582.34;5035013;28;20086;-76
2022/02/15 03:20:10;;;;;;;19.25;7.45;;;;;;;5.61;88.21;100588.63;5051983;28;20090;-76
2022/02/15 03:22:37;;;;;;;15.90;6.65;;;;;;;5.55;88.58;100590.88;5068535;28;20036;-76
2022/02/15 03:25:04;;;;;;;18.10;6.97;;;;;;;5.41;88.61;100590.28;5051499;28;20029;-76
2022/02/15 03:27:30;;;;;;;19.02;7.13;;;;;;;5.55;88.39;100591.69;5051447;28;20032;-75
2022/02/15 03:29:55;;;;;;;18.45;6.53;;;;;;;5.47;88.82;100596.66;5035623;28;20564;-75
2022/02/15 03:32:23;;;;;;;20.88;6.10;;;;;;;5.56;88.43;100595.91;5033685;28;20094;-76
2022/02/15 03:34:50;;;;;;;25.88;7.00;;;;;;;5.47;88.59;100592.31;5034134;28;20067;-76
2022/02/15 03:37:15;;;;;;;21.65;7.00;;;;;;;5.58;89.05;100598.34;5051514;28;20036;-76
2022/02/15 03:39:41;;;;;;;13.38;5.60;;;;;;;5.44;89.34;100597.75;5035037;28;20558;-76
2022/02/15 03:44:54;;;;;;;17.45;6.78;;;;;;;5.31;91.18;100598.88;5067824;28;20042;-75
2022/02/15 03:47:38;;;;;;;14.35;6.78;;;;;;;5.24;91.37;100601.16;5046947;28;20036;-75
2022/02/15 03:50:05;;;;;;;20.45;7.30;;;;;;;5.20;91.48;100615.19;5067032;28;20056;-76
2022/02/15 03:52:31;;;;;;;17.25;7.55;;;;;;;5.29;91.42;100616.19;5051392;28;20058;-75
2022/02/15 03:54:57;;;;;;;17.60;7.82;;;;;;;5.31;91.84;100616.88;5064270;28;20510;-76
2022/02/15 03:57:23;;;;;;;21.00;7.85;;;;;;;5.24;91.74;100617.38;5051721;28;20029;-76
2022/02/15 03:59:49;;;;;;;18.15;7.35;;;;;;;5.30;91.74;100621.19;5066331;28;20044;-75
2022/02/15 04:02:22;;;;;;;;;;;;;;;5.25;91.83;100625.91;5067083;28;20403;-76
2022/02/15 04:04:50;;;;;;;18.15;7.10;;;;;;;5.28;91.44;100624.84;5050980;28;19965;-76
2022/02/15 04:07:17;;;;;;;15.23;7.35;;;;;;;5.20;92.08;100639.16;5047045;28;20455;-76
2022/02/15 04:09:43;;;;;;;20.50;7.05;;;;;;;5.17;92.07;100636.00;5050243;28;20044;-75
2022/02/15 04:12:10;;;;;;;17.92;6.43;;;;;;;5.11;92.17;100644.22;5051138;28;20708;-76
2022/02/15 04:14:37;;;;;;;15.25;6.90;;;;;;;5.11;92.57;100646.78;5050058;28;20101;-75
2022/02/15 04:17:04;;;;;;;44.25;19.13;;;;;;;5.16;92.68;100652.34;5049158;28;20025;-76
2022/02/15 04:19:31;;;;;;;35.13;15.38;;;;;;;5.21;92.41;100653.59;5030097;28;20032;-76
2022/02/15 04:21:58;;;;;;;26.45;11.38;;;;;;;5.18;92.24;100653.88;5067884;28;20059;-75
2022/02/15 04:24:24;;;;;;;36.22;16.90;;;;;;;5.40;91.73;100650.34;5031473;28;20036;-75
2022/02/15 04:26:51;;;;;;;33.67;14.75;;;;;;;5.25;91.49;100659.31;5032237;28;20497;-75
2022/02/15 04:29:17;;;;;;;21.58;9.88;;;;;;;5.16;92.12;100660.91;5049740;28;20024;-76
2022/02/15 04:31:55;;;;;;;22.55;11.40;;;;;;;5.31;92.05;100658.00;5058754;28;20102;-76
2022/02/15 04:34:22;;;;;;;24.80;11.68;;;;;;;5.33;91.71;100668.97;5050531;28;20033;-76
2022/02/15 04:36:48;;;;;;;18.38;9.77;;;;;;;5.23;91.88;100677.44;5049978;28;20120;-76
2022/02/15 04:39:14;;;;;;;38.08;16.75;;;;;;;5.21;91.99;100687.03;5067132;28;20051;-76
2022/02/15 04:41:49;;;;;;;31.33;15.70;;;;;;;5.20;92.62;100694.88;5059688;28;20016;-76
2022/02/15 04:44:19;;;;;;;27.88;10.57;;;;;;;5.21;92.08;100697.31;5055846;28;20031;-76
2022/02/15 04:46:45;;;;;;;18.85;10.70;;;;;;;5.15;92.47;100702.16;5034055;28;20040;-76
2022/02/15 04:49:14;;;;;;;20.33;8.73;;;;;;;5.15;92.73;100697.00;5068212;28;20043;-76
2022/02/15 04:51:39;;;;;;;18.55;8.63;;;;;;;5.19;92.23;100696.63;5050211;28;20494;-76
2022/02/15 04:54:05;;;;;;;18.27;9.00;;;;;;;5.22;92.13;100696.38;5047551;28;20021;-76
2022/02/15 04:56:31;;;;;;;16.80;8.63;;;;;;;5.17;92.20;100701.06;5050596;28;20039;-76
2022/02/15 04:58:57;;;;;;;18.08;7.47;;;;;;;5.14;92.19;100701.34;5049607;28;20032;-75
2022/02/15 05:01:22;;;;;;;20.85;9.05;;;;;;;5.25;91.95;100706.44;5049508;28;20399;-76
2022/02/15 05:03:55;;;;;;;19.02;8.82;;;;;;;5.04;92.15;100708.13;5049611;28;20033;-76
2022/02/15 05:06:20;;;;;;;23.15;10.90;;;;;;;5.05;92.47;100708.03;5066012;28;20471;-76
2022/02/15 05:08:47;;;;;;;20.85;10.32;;;;;;;5.02;92.81;100717.72;5049559;28;20024;-76
2022/02/15 05:11:13;;;;;;;21.13;8.98;;;;;;;4.96;93.17;100720.78;5051117;28;20613;-76
2022/02/15 05:13:43;;;;;;;14.23;7.07;;;;;;;5.04;92.58;100726.94;5062111;28;20514;-76
2022/02/15 05:16:29;;;;;;;18.50;7.10;;;;;;;5.03;92.57;100721.94;5062870;28;20102;-76
2022/02/15 05:19:10;;;;;;;23.95;7.45;;;;;;;4.94;92.98;100720.91;5041599;28;20039;-76
2022/02/15 05:21:36;;;;;;;24.02;7.68;;;;;;;5.03;92.40;100714.22;5053439;28;20374;-76
2022/02/15 05:24:03;;;;;;;19.20;8.93;;;;;;;4.89;92.98;100723.00;5047215;28;20024;-76
2022/02/15 05:26:42;;;;;;;18.70;9.27;;;;;;;4.91;92.72;100722.91;5039045;28;20086;-76
2022/02/15 05:29:08;;;;;;;19.33;8.88;;;;;;;4.83;93.14;100719.19;5049587;28;20624;-76
2022/02/15 05:31:41;;;;;;;14.90;6.38;;;;;;;4.90;93.32;100716.94;5032778;28;20422;-75
2022/02/15 05:34:10;;;;;;;20.73;8.75;;;;;;;4.93;93.09;100718.44;5049112;28;20029;-76
2022/02/15 05:36:36;;;;;;;24.52;8.25;;;;;;;4.83;93.43;100719.19;5051431;28;20090;-76
2022/02/15 05:39:03;;;;;;;22.73;8.55;;;;;;;4.90;93.14;100731.53;5049239;28;20020;-75
2022/02/15 05:41:33;;;;;;;12.05;5.93;;;;;;;4.87;93.11;100728.28;5030598;28;20032;-76
2022/02/15 05:44:03;;;;;;;12.07;5.45;;;;;;;4.90;92.44;100718.69;5045815;28;20025;-76
2022/02/15 05:46:29;;;;;;;13.38;7.25;;;;;;;4.86;92.65;100725.84;5045841;28;20391;-75
2022/02/15 05:48:55;;;;;;;18.50;8.05;;;;;;;4.81;93.04;100730.53;5047778;28;20032;-76
2022/02/15 05:51:42;;;;;;;16.05;8.73;;;;;;;4.79;92.64;100722.13;5049631;28;20045;-75
2022/02/15 05:54:17;;;;;;;15.60;6.68;;;;;;;4.90;92.56;100731.53;5052813;28;20328;-75
2022/02/15 05:56:44;;;;;;;15.65;9.85;;;;;;;4.79;92.18;100728.06;5032627;28;20105;-76
2022/02/15 05:59:30;;;;;;;14.90;8.07;;;;;;;4.90;92.33;100734.94;5051869;28;20561;-76
2022/02/15 06:02:16;;;;;;;17.30;8.25;;;;;;;4.78;92.45;100739.25;5047282;28;20540;-76
2022/02/15 06:04:53;;;;;;;26.30;8.55;;;;;;;4.80;92.88;100750.25;5070993;28;20032;-76
2022/02/15 06:07:26;;;;;;;15.63;8.07;;;;;;;4.71;93.40;100748.41;5033245;28;20020;-75
2022/02/15 06:09:55;;;;;;;44.53;22.40;;;;;;;4.71;93.78;100748.41;5033149;28;20127;-76
2022/02/15 06:12:22;;;;;;;20.15;9.48;;;;;;;4.76;93.90;100753.97;5045695;28;20035;-75
2022/02/15 06:14:59;;;;;;;19.42;8.63;;;;;;;4.97;93.44;100754.09;5048111;28;20557;-76
2022/02/15 06:17:30;;;;;;;22.52;9.65;;;;;;;4.79;93.80;100756.31;5048326;28;20036;-76
2022/02/15 06:19:56;;;;;;;19.48;8.70;;;;;;;4.75;94.33;100757.50;5049431;28;20091;-76
2022/02/15 06:22:31;;;;;;;20.08;9.27;;;;;;;4.75;94.66;100759.28;5046656;28;20037;-76
2022/02/15 06:24:59;;;;;;;20.98;10.27;;;;;;;4.73;95.06;100763.69;5052029;28;20029;-76
2022/02/15 06:27:36;;;;;;;18.42;9.90;;;;;;;4.79;94.97;100765.78;5057497;28;20036;-76
2022/02/15 06:30:22;;;;;;;26.30;10.18;;;;;;;4.85;95.22;100767.88;5029371;28;20047;-76
2022/02/15 06:32:54;;;;;;;26.55;10.25;;;;;;;4.80;94.99;100767.41;5058803;28;20028;-76
2022/02/15 06:35:20;;;;;;;22.88;11.25;;;;;;;4.79;95.33;100765.78;5047487;28;20085;-76
2022/02/15 06:37:53;;;;;;;32.58;12.48;;;;;;;4.89;94.69;100771.84;5038491;28;20043;-76
2022/02/15 06:40:20;;;;;;;26.73;11.98;;;;;;;4.79;95.28;100776.88;5053209;28;20075;-76
2022/02/15 06:42:49;;;;;;;25.45;11.85;;;;;;;4.86;95.44;100783.19;5053837;28;20038;-76
2022/02/15 06:45:17;;;;;;;33.60;12.93;;;;;;;4.91;95.19;100787.13;5057513;28;20071;-76
2022/02/15 06:47:43;;;;;;;31.08;13.35;;;;;;;4.85;95.26;100793.56;5052406;28;20029;-75
2022/02/15 06:50:09;;;;;;;36.03;13.77;;;;;;;4.82;95.61;100784.38;5051837;28;20028;-76
2022/02/15 06:52:41;;;;;;;31.77;14.00;;;;;;;4.99;95.61;100795.06;5070315;28;20059;-76
2022/02/15 06:55:14;;;;;;;28.67;13.05;;;;;;;4.90;95.35;100800.91;5037296;28;20028;-76
2022/02/15 06:57:43;;;;;;;31.67;13.82;;;;;;;4.88;95.47;100801.06;5056298;28;20028;-76
2022/02/15 07:00:11;;;;;;;29.00;13.07;;;;;;;4.99;95.43;100801.03;5051980;28;20033;-76
2022/02/15 07:02:40;;;;;;;31.73;13.85;;;;;;;4.97;95.43;100802.06;5053537;28;20379;-76
2022/02/15 07:05:10;;;;;;;28.00;14.43;;;;;;;5.16;94.88;100804.88;5049771;28;20390;-76
2022/02/15 07:07:37;;;;;;;27.00;14.18;;;;;;;4.98;95.25;100803.72;5068857;28;20082;-76
2022/02/15 07:10:06;;;;;;;31.17;14.00;;;;;;;4.95;94.91;100815.03;5031820;28;20475;-76
2022/02/15 07:12:53;;;;;;;29.48;13.90;;;;;;;5.01;95.28;100818.88;5056284;28;20039;-76
2022/02/15 07:15:22;;;;;;;32.75;14.07;;;;;;;4.98;95.10;100822.53;5067651;28;20039;-76
2022/02/15 07:17:58;;;;;;;36.78;15.55;;;;;;;5.14;95.16;100826.47;5052611;28;20040;-75
2022/02/15 07:20:35;;;;;;;33.03;14.65;;;;;;;5.10;95.21;100832.78;5039462;28;20052;-76
2022/02/15 07:23:36;;;;;;;37.33;14.43;;;;;;;5.15;94.67;100840.97;5056006;28;20094;-76
2022/02/15 07:26:27;;;;;;;31.25;14.35;;;;;;;5.12;95.22;100841.19;5068661;28;20101;-76
2022/02/15 07:29:15;;;;;;;29.30;14.32;;;;;;;5.18;94.39;100841.53;5037912;28;20295;-75
2022/02/15 07:32:02;;;;;;;29.38;14.68;;;;;;;5.18;94.42;100838.97;5038016;28;20510;-75
2022/02/15 07:34:28;;;;;;;33.65;15.45;;;;;;;5.33;94.11;100841.25;5052333;28;20105;-75
2022/02/15 07:36:53;;;;;;;43.15;16.48;;;;;;;5.30;94.14;100842.34;5048346;28;20028;-76
2022/02/15 07:39:19;;;;;;;33.97;15.32;;;;;;;5.33;94.25;100842.09;5068863;28;20085;-76
2022/02/15 07:41:46;;;;;;;37.05;16.33;;;;;;;5.37;93.77;100850.38;5049147;28;20039;-76
2022/02/15 07:44:11;;;;;;;40.55;17.10;;;;;;;5.43;93.97;100847.34;5067577;28;20373;-75
2022/02/15 07:46:44;;;;;;;39.55;17.30;;;;;;;5.36;93.87;100854.69;5067253;28;20036;-75
2022/02/15 07:49:10;;;;;;;38.20;15.68;;;;;;;5.37;93.84;100855.50;5068184;28;20036;-75
2022/02/15 07:51:36;;;;;;;38.80;15.98;;;;;;;5.41;93.68;100870.59;5067925;28;20036;-76
2022/02/15 07:54:02;;;;;;;39.70;17.40;;;;;;;5.47;93.01;100874.44;5068733;28;20032;-76
2022/02/15 07:56:27;;;;;;;32.80;15.85;;;;;;;5.42;93.32;100885.06;5049984;28;20094;-76
2022/02/15 07:58:53;;;;;;;30.92;14.05;;;;;;;5.56;93.67;100875.47;5049047;28;20398;-76
2022/02/15 08:01:18;;;;;;;39.50;14.70;;;;;;;5.49;93.39;100880.28;5051817;28;20107;-76
2022/02/15 08:03:44;;;;;;;34.38;14.98;;;;;;;5.48;92.92;100881.19;5050335;28;20040;-76
2022/02/15 08:06:09;;;;;;;32.40;14.65;;;;;;;5.51;93.16;100887.88;5050132;28;20111;-76
2022/02/15 08:08:35;;;;;;;40.85;15.60;;;;;;;5.57;93.11;100882.25;5053032;28;20500;-76
2022/02/15 08:11:00;;;;;;;34.40;14.88;;;;;;;5.51;93.08;100890.44;5067391;28;20043;-76
2022/02/15 08:13:34;;;;;;;36.63;15.23;;;;;;;5.47;92.92;100885.53;5067691;28;20033;-76
2022/02/15 08:15:59;;;;;;;36.67;15.43;;;;;;;5.47;92.40;100898.41;5047862;28;20036;-75
2022/02/15 08:18:25;;;;;;;26.45;14.52;;;;;;;5.65;92.66;100901.28;5048075;28;20384;-76
2022/02/15 08:20:50;;;;;;;29.20;14.27;;;;;;;5.64;92.56;100898.84;5073949;28;20105;-75
2022/02/15 08:23:16;;;;;;;33.45;13.70;;;;;;;5.74;91.99;100894.56;5048930;28;20020;-75
2022/02/15 08:25:41;;;;;;;27.25;12.70;;;;;;;5.92;90.26;100902.59;5050041;28;20093;-76
2022/02/15 08:28:08;;;;;;;25.70;12.10;;;;;;;5.96;89.53;100901.44;5047811;28;20441;-76
2022/02/15 08:30:34;;;;;;;23.40;11.68;;;;;;;5.93;89.03;100906.78;5050252;28;20191;-76
2022/02/15 08:33:00;;;;;;;28.42;11.70;;;;;;;5.89;89.60;100909.75;5067490;28;20025;-76
2022/02/15 08:35:25;;;;;;;22.92;11.20;;;;;;;5.92;89.30;100901.78;5066735;28;20040;-76
2022/02/15 08:37:52;;;;;;;20.30;11.30;;;;;;;6.01;88.88;100907.03;5032300;28;20059;-77
2022/02/15 08:40:20;;;;;;;20.05;10.95;;;;;;;6.01;88.75;100907.03;5067566;28;20282;-76
2022/02/15 08:42:46;;;;;;;28.58;12.13;;;;;;;6.07;87.86;100907.50;5031201;28;20410;-77
2022/02/15 08:45:11;;;;;;;27.25;10.18;;;;;;;6.11;87.50;100908.88;5045316;28;20040;-76
2022/02/15 08:47:38;;;;;;;23.75;10.15;;;;;;;6.18;87.38;100913.41;5049640;28;20036;-76
2022/02/15 08:50:04;;;;;;;21.58;10.20;;;;;;;6.17;87.25;100923.81;5067265;28;20036;-76
2022/02/15 08:52:31;;;;;;;22.10;9.40;;;;;;;6.16;87.43;100922.16;5049421;28;20020;-77
2022/02/15 08:54:56;;;;;;;24.35;10.27;;;;;;;6.19;87.01;100924.50;5067590;28;20037;-76
2022/02/15 08:57:23;;;;;;;22.90;10.93;;;;;;;6.01;87.85;100937.94;5063717;28;20070;-76
2022/02/15 08:59:53;;;;;;;23.50;10.88;;;;;;;6.10;87.80;100926.06;5062975;28;20098;-76
2022/02/15 09:02:19;;;;;;;22.00;10.32;;;;;;;6.02;87.65;100936.97;5063592;28;20040;-76
2022/02/15 09:04:45;;;;;;;23.27;10.20;;;;;;;6.00;87.35;100933.72;5050798;28;20045;-76
2022/02/15 09:07:10;;;;;;;26.98;9.77;;;;;;;5.97;87.40;100931.41;5049765;28;20029;-76
2022/02/15 09:09:36;;;;;;;22.23;9.43;;;;;;;6.11;87.00;100937.19;5034385;28;20032;-76
2022/02/15 09:12:02;;;;;;;21.75;10.15;;;;;;;6.07;86.58;100936.63;5049127;28;20020;-77
2022/02/15 09:14:29;;;;;;;17.77;9.70;;;;;;;6.14;86.15;100931.78;5049453;28;20111;-76
2022/02/15 09:16:56;;;;;;;20.02;8.52;;;;;;;6.12;86.55;100943.97;5067458;28;20027;-76
2022/02/15 09:19:21;;;;;;;16.60;9.23;;;;;;;6.24;86.32;100943.00;5061736;28;20093;-76
2022/02/15 09:21:49;;;;;;;20.95;9.50;;;;;;;6.10;86.27;100938.94;5049381;28;20044;-76
2022/02/15 09:24:15;;;;;;;19.63;9.85;;;;;;;6.18;86.31;100951.22;5065920;28;20033;-76
2022/02/15 09:26:41;;;;;;;23.45;9.20;;;;;;;6.06;86.46;100954.75;5069326;28;21737;-76
2022/02/15 09:29:07;;;;;;;23.73;9.95;;;;;;;6.17;86.25;100954.72;5065242;28;20044;-76
2022/02/15 09:31:33;;;;;;;23.80;10.52;;;;;;;6.18;86.12;100956.38;5043338;28;20102;-77
2022/02/15 09:33:59;;;;;;;18.02;9.95;;;;;;;6.18;85.59;100957.19;5065653;28;20530;-76
2022/02/15 09:36:26;;;;;;;20.38;9.45;;;;;;;6.14;86.15;100960.94;5066927;28;20407;-76
2022/02/15 09:38:52;;;;;;;21.90;9.77;;;;;;;6.17;85.75;100958.09;5033577;28;20035;-77
2022/02/15 09:41:18;;;;;;;27.15;9.45;;;;;;;6.24;85.96;100953.28;5046423;28;20032;-75
2022/02/15 09:43:44;;;;;;;22.73;8.90;;;;;;;6.32;85.65;100961.22;5031327;28;20029;-76
2022/02/15 09:46:13;;;;;;;21.98;8.77;;;;;;;6.40;85.09;100966.56;5070721;28;20051;-75
2022/02/15 09:48:43;;;;;;;23.02;9.35;;;;;;;6.48;84.27;100953.06;5064243;28;20039;-76
2022/02/15 09:51:10;;;;;;;23.65;10.68;;;;;;;6.40;84.45;100976.88;5062190;28;20597;-76
2022/02/15 09:53:35;;;;;;;21.83;8.93;;;;;;;6.48;84.65;100976.25;5048297;28;20046;-76
2022/02/15 09:56:01;;;;;;;20.45;9.10;;;;;;;6.57;83.89;100972.09;5047243;28;20032;-77
2022/02/15 09:58:27;;;;;;;19.17;8.98;;;;;;;6.62;83.15;100970.78;5048201;28;20043;-76
2022/02/15 10:00:55;;;;;;;26.55;9.68;;;;;;;6.74;82.89;100970.69;5055296;28;20029;-76
2022/02/15 10:03:20;;;;;;;20.27;8.60;;;;;;;6.75;81.96;100969.78;5048663;28;20028;-76
2022/02/15 10:05:51;;;;;;;18.10;8.25;;;;;;;6.80;81.73;100965.88;5032500;28;20444;-76
2022/02/15 10:08:31;;;;;;;23.83;7.97;;;;;;;6.85;81.35;100980.13;5032166;28;20036;-76
2022/02/15 10:11:16;;;;;;;24.25;9.00;;;;;;;6.88;81.16;100988.44;5047593;28;20119;-76
2022/02/15 10:13:46;;;;;;;17.90;8.18;;;;;;;6.73;80.82;100998.25;5066330;28;20029;-78
2022/02/15 10:16:12;;;;;;;18.30;7.88;;;;;;;6.77;80.75;100978.19;5052504;28;20036;-75
2022/02/15 10:18:38;;;;;;;17.10;7.20;;;;;;;6.92;79.27;100981.25;5033256;28;20075;-75
2022/02/15 10:21:04;;;;;;;16.10;7.88;;;;;;;6.99;79.46;100985.78;5046763;28;20398;-76
2022/02/15 10:23:33;;;;;;;20.08;8.55;;;;;;;7.20;79.44;100996.06;5046802;28;20033;-75
2022/02/15 10:25:59;;;;;;;16.90;7.00;;;;;;;7.16;78.91;100992.09;5064465;28;20037;-77
2022/02/15 10:28:26;;;;;;;13.90;6.75;;;;;;;7.19;78.61;100989.25;5026546;28;20044;-75
2022/02/15 10:30:53;;;;;;;16.27;7.60;;;;;;;7.16;78.92;100994.69;5066041;28;20433;-76
2022/02/15 10:33:22;;;;;;;18.38;6.07;;;;;;;7.06;77.45;100993.00;5046869;28;20024;-75
2022/02/15 10:36:04;;;;;;;13.90;5.85;;;;;;;7.04;76.31;101000.84;5064917;28;20044;-76
2022/02/15 10:38:49;;;;;;;15.18;5.35;;;;;;;7.02;75.57;101003.56;5059229;28;20501;-75
2022/02/15 10:41:17;;;;;;;12.55;5.65;;;;;;;7.22;75.85;100998.50;5049565;28;20055;-76
2022/02/15 10:43:47;;;;;;;15.13;5.65;;;;;;;7.31;74.45;100999.47;5048127;28;20048;-75
2022/02/15 10:46:15;;;;;;;12.48;4.72;;;;;;;7.32;74.46;101001.94;5061395;28;20360;-76
2022/02/15 10:48:41;;;;;;;7.57;3.33;;;;;;;7.30;72.84;101010.75;5063817;28;20449;-75
2022/02/15 10:51:07;;;;;;;12.18;3.80;;;;;;;7.38;73.07;101010.91;5050049;28;20032;-75
2022/02/15 10:53:33;;;;;;;10.27;3.70;;;;;;;7.47;72.50;101007.56;5053877;28;20030;-76
2022/02/15 10:55:59;;;;;;;16.98;3.78;;;;;;;7.49;72.63;101007.44;5065992;28;20048;-75
2022/02/15 10:58:25;;;;;;;7.32;3.05;;;;;;;7.43;71.81;101005.38;5046689;28;20069;-76
2022/02/15 11:00:51;;;;;;;13.02;3.10;;;;;;;7.45;71.33;101013.81;5059742;28;20098;-76
2022/02/15 11:03:21;;;;;;;15.02;4.32;;;;;;;7.35;70.97;101009.41;5050823;28;20397;-76
2022/02/15 11:05:48;;;;;;;8.43;2.97;;;;;;;7.25;71.43;101007.75;5066577;28;20040;-76
2022/02/15 11:08:15;;;;;;;19.83;3.28;;;;;;;7.17;72.32;101006.63;5048594;28;20131;-76
2022/02/15 11:10:47;;;;;;;9.63;3.20;;;;;;;7.06;72.57;101000.72;5048949;28;20040;-75
2022/02/15 11:13:14;;;;;;;10.15;3.22;;;;;;;7.16;72.38;101005.00;5071419;28;20024;-76
2022/02/15 11:15:41;;;;;;;10.80;3.45;;;;;;;7.12;72.52;100998.47;5049578;28;20047;-75
2022/02/15 11:18:13;;;;;;;14.80;3.72;;;;;;;7.09;73.30;100990.97;5065113;28;20032;-75
2022/02/15 11:20:56;;;;;;;9.63;3.55;;;;;;;7.15;73.17;100992.22;5068986;28;20538;-76
2022/02/15 11:23:28;;;;;;;11.57;3.28;;;;;;;7.20;71.85;100990.91;5034868;28;20024;-76
2022/02/15 11:26:11;;;;;;;12.25;2.78;;;;;;;7.18;69.77;100992.78;5048717;28;20033;-77
2022/02/15 11:28:57;;;;;;;10.35;2.78;;;;;;;7.00;69.15;100995.13;5049744;28;20044;-77
2022/02/15 11:31:28;;;;;;;9.88;2.30;;;;;;;7.03;69.50;100991.50;5065120;28;20395;-76
2022/02/15 11:33:56;;;;;;;9.00;2.22;;;;;;;7.03;69.13;100994.06;5066242;28;20058;-76
2022/02/15 11:36:23;;;;;;;7.38;2.38;;;;;;;6.92;69.68;100984.66;5053079;28;20107;-76